• Join FlightAware (Why Join?)
  • Login
  • US Flag 
11:32PM EDT


 

Airport Tracker/Info


-or-


 

Live Flight TrackerFlight Track Log ✈ CJC3914 ✈ 23-May-2012 ✈ KIAD - KSYR

Flight Track Log - Related Links

Times and Time Zones

All times are in EDT time to prevent confusion due to time zone crossing. See the CJC3914 flight status page for this flight to view local times or setup timezone preferences in your user account.

Time Position Orientation Groundspeed Altitude Reporting Facility
EDT Latitude Longitude Course Direction KTS MPH feet Rate Location/Type
10:47PM 38.9667 -77.5167 311° West 195 224 1,700  Level Potomac TRACON
10:48PM 39.0000 -77.5667 303° West 221 254 2,800 1,500 Climbing Potomac TRACON
10:49PM 39.0333 -77.6333 321° Northwest 257 296 4,600 1,800 Climbing Potomac TRACON
10:50PM 39.1114 -77.7156 342° North 276 318 6,400 1,740 Climbing Washington Center
10:51PM 39.1858 -77.7472 338° Northwest 283 326 8,100 1,320 Climbing Washington Center
10:52PM 39.2458 -77.7786 338° Northwest 378 435 9,100 480 Climbing Washington Center
10:53PM 39.3222 -77.8183 339° North 327 376 9,100 -60 Level Washington Center
10:54PM 39.3986 -77.8556 North 297 342 9,000 -60 Descending Washington Center
10:55PM 39.4925 -77.8531 359° North 281 323 9,000  Level Washington Center
10:57PM 39.6628 -77.8586 23° Northeast 290 334 9,100  Climbing New York Center
10:58PM 39.7339 -77.8200 46° Northeast 275 316 9,100  Level New York Center
10:59PM 39.7906 -77.7447 32° Northeast 270 311 9,100  Level New York Center
11:00PM 39.8586 -77.6892 24° Northeast 281 323 9,100  Level New York Center
11:01PM 39.9275 -77.6500 30° Northeast 291 335 9,100  Level New York Center
11:02PM 40.0039 -77.5922 26° Northeast 298 343 9,100  Level New York Center
11:03PM 40.0839 -77.5406 27° Northeast 304 350 9,100  Level New York Center
11:04PM 40.1489 -77.4978 25° Northeast 293 337 9,100  Level New York Center
11:05PM 40.2289 -77.4486 28° Northeast 293 337 9,100  Level New York Center
11:06PM 40.2917 -77.4056 26° Northeast 288 331 9,100  Level New York Center
11:07PM 40.3719 -77.3533 26° Northeast 283 326 9,100  Level New York Center
11:08PM 40.4344 -77.3128 28° Northeast 283 326 9,100  Level New York Center
11:09PM 40.5106 -77.2600 27° Northeast 283 326 9,100  Level New York Center
11:10PM 40.5711 -77.2192 25° Northeast 276 318 9,100  Level New York Center
11:11PM 40.6508 -77.1692 27° Northeast 276 318 9,100  Level New York Center
11:12PM 40.7222 -77.1211 28° Northeast 276 318 9,100 -60 Level New York Center
11:13PM 40.7914 -77.0728 27° Northeast 276 318 9,000 -60 Descending New York Center
11:14PM 40.8606 -77.0269 26° Northeast 276 318 9,000  Level New York Center
11:15PM 40.9319 -76.9814 28° Northeast 276 318 9,100  Climbing New York Center
11:16PM 41.0011 -76.9325 26° Northeast 276 318 9,000 -60 Descending New York Center
11:17PM 41.0722 -76.8867 28° Northeast 276 318 9,000  Level New York Center
11:18PM 41.1414 -76.8381 26° Northeast 276 318 9,000  Level New York Center
11:19PM 41.2125 -76.7919 27° Northeast 271 312 9,000  Level New York Center
11:20PM 41.2836 -76.7431 28° Northeast 271 312 9,100  Climbing New York Center
11:21PM 41.3528 -76.6939 28° Northeast 271 312 9,000 -60 Descending New York Center
11:22PM 41.4219 -76.6444 26° Northeast 276 318 9,000  Level New York Center
11:23PM 41.4931 -76.5981 27° Northeast 276 318 9,000  Level New York Center
11:24PM 41.5575 -76.5539 28° Northeast 276 318 9,000  Level New York Center
11:25PM 41.6267 -76.5044 28° Northeast 276 318 9,000  Level New York Center
11:26PM 41.7042 -76.4500 15° North 276 318 9,000  Level New York Center
11:27PM 41.7742 -76.4253 North 276 318 9,000  Level New York Center
11:28PM 41.8539 -76.4097 10° North 281 323 9,000  Level New York Center
11:29PM 41.9342 -76.3914 10° North 281 323 9,000  Level New York Center
11:30PM 42.0100 -76.3728 North 281 323 9,000  Level New York Center
11:31PM 42.0919 -76.3544 10° North 281 323 9,000  Level New York Center
11:32PM 42.1697 -76.3358 10° North 281 323 9,000  Level New York Center
11:33PM 42.2497 -76.3175 North 281 323 9,000  Level New York Center
11:35PM 42.3853 -76.2886 11° North 289 333 9,000  Level Boston Center
11:36PM 42.4650 -76.2683 North 287 330 9,100  Climbing Boston Center
11:37PM 42.5508 -76.2594 357° North 292 336 9,100  Level Boston Center
11:38PM 42.6300 -76.2644 North 289 333 9,100 -120 Level Boston Center
11:39PM 42.7114 -76.2581 359° North 287 330 8,900 -660 Descending Boston Center
11:40PM 42.7886 -76.2600 357° North 285 328 7,800 -1,080 Descending Boston Center
11:41PM 42.8614 -76.2644 359° North 259 298 6,800 -1,080 Descending Boston Center
11:42PM 42.9258 -76.2656 North 236 272 5,700 -1,020 Descending Boston Center
11:43PM 42.9906 -76.2639 359° North 228 262 4,800 -1,380 Descending Boston Center
11:44PM 43.0489 -76.2647 20° North 205 236 3,000 -1,380 Descending Boston Center
11:45PM 43.0936 -76.2419 20° North 163 188 2,100 -900 Descending Boston Center